Time;durP1;ratioP1;P1;durP2;ratioP2;P2;SDS_P1;SDS_P2;PMS_P1;PMS_P2;Temp;Humidity;BMP_temperature;BMP_pressure;BME280_temperature;BME280_humidity;BME280_pressure;Samples;Min_cycle;Max_cycle;Signal;HPM_P1;HPM_P2
2021/10/17 00:02:22;;;;;;;26.38;17.25;;;8.40;83.70;;;;;;5116998;27;20108;-75
2021/10/17 00:04:48;;;;;;;27.55;17.35;;;8.30;83.50;;;;;;5116166;27;20531;-75
2021/10/17 00:07:14;;;;;;;29.05;17.95;;;8.20;83.20;;;;;;5116241;28;20024;-75
2021/10/17 00:09:41;;;;;;;28.20;17.90;;;8.10;83.50;;;;;;5116363;28;20031;-75
2021/10/17 00:12:08;;;;;;;28.83;16.63;;;8.10;83.90;;;;;;5116193;28;20038;-76
2021/10/17 00:14:34;;;;;;;26.52;16.52;;;8.00;84.30;;;;;;5116265;27;20475;-75
2021/10/17 00:17:00;;;;;;;29.25;17.50;;;8.00;84.30;;;;;;5116127;28;20103;-75
2021/10/17 00:19:25;;;;;;;27.00;17.48;;;7.90;84.80;;;;;;5116169;27;20055;-76
2021/10/17 00:21:51;;;;;;;26.10;16.90;;;7.80;85.10;;;;;;5116244;27;20371;-75
2021/10/17 00:24:17;;;;;;;31.05;17.58;;;7.80;85.50;;;;;;5116032;27;20027;-75
2021/10/17 00:26:42;;;;;;;28.95;18.23;;;7.80;85.50;;;;;;5116002;27;20035;-75
2021/10/17 00:29:08;;;;;;;28.45;17.75;;;7.80;85.50;;;;;;5116030;28;20102;-75
2021/10/17 00:31:34;;;;;;;28.58;17.25;;;7.80;85.40;;;;;;5115946;28;20043;-75
2021/10/17 00:33:59;;;;;;;29.38;18.50;;;7.80;85.50;;;;;;5115989;28;20051;-75
2021/10/17 00:36:27;;;;;;;26.77;17.65;;;7.80;85.40;;;;;;5115814;27;20460;-75
2021/10/17 00:38:53;;;;;;;28.90;17.90;;;7.80;85.30;;;;;;5115889;28;20019;-74
2021/10/17 00:41:19;;;;;;;28.38;16.83;;;7.80;85.50;;;;;;5115960;27;20439;-75
2021/10/17 00:43:46;;;;;;;30.90;17.45;;;7.70;85.60;;;;;;5115840;27;20035;-76
2021/10/17 00:46:19;;;;;;;30.30;17.73;;;7.70;86.00;;;;;;5115538;28;20115;-75
2021/10/17 00:48:45;;;;;;;26.63;17.33;;;7.70;85.80;;;;;;5115812;28;20058;-76
2021/10/17 00:51:12;;;;;;;29.02;17.48;;;7.70;85.70;;;;;;5115474;27;20020;-75
2021/10/17 00:53:38;;;;;;;28.48;17.95;;;7.60;85.80;;;;;;5115568;28;20379;-76
2021/10/17 00:56:05;;;;;;;30.15;19.20;;;7.60;85.90;;;;;;5115242;27;20019;-75
2021/10/17 00:58:31;;;;;;;27.73;17.65;;;7.60;86.00;;;;;;5115291;27;20042;-75
2021/10/17 01:00:56;;;;;;;28.98;17.88;;;7.50;86.10;;;;;;5115484;27;20030;-76
2021/10/17 01:03:22;;;;;;;30.50;17.23;;;7.50;86.20;;;;;;5115384;28;20102;-76
2021/10/17 01:05:50;;;;;;;27.90;17.90;;;7.50;85.80;;;;;;5115434;27;20032;-75
2021/10/17 01:08:16;;;;;;;27.55;17.00;;;7.50;85.70;;;;;;5115394;27;20016;-75
2021/10/17 01:10:42;;;;;;;28.58;17.02;;;7.50;85.80;;;;;;5115268;27;20026;-75
2021/10/17 01:13:19;;;;;;;28.48;16.65;;;7.40;85.50;;;;;;5115384;28;20362;-76
2021/10/17 01:15:52;;;;;;;29.60;16.98;;;7.40;85.60;;;;;;5115246;27;20460;-77
2021/10/17 01:18:17;;;;;;;27.95;17.38;;;7.40;85.70;;;;;;5115001;27;20403;-75
2021/10/17 01:20:43;;;;;;;29.08;17.98;;;7.30;85.50;;;;;;5115101;27;20020;-74
2021/10/17 01:23:09;;;;;;;30.13;17.85;;;7.30;85.70;;;;;;5115165;27;20129;-75
2021/10/17 01:25:35;;;;;;;30.05;18.92;;;7.20;85.90;;;;;;5113444;28;20042;-76
2021/10/17 01:28:00;;;;;;;30.05;18.98;;;7.10;86.10;;;;;;5114979;27;20028;-76
2021/10/17 01:30:30;;;;;;;33.58;20.02;;;7.10;86.40;;;;;;5114616;28;20043;-76
2021/10/17 01:32:56;;;;;;;30.98;19.33;;;7.20;86.50;;;;;;5114925;27;20038;-76
2021/10/17 01:35:21;;;;;;;31.50;19.45;;;7.10;87.20;;;;;;5114740;27;20036;-76
2021/10/17 01:37:47;;;;;;;36.40;20.85;;;7.20;87.20;;;;;;5114769;27;20019;-75
2021/10/17 01:40:13;;;;;;;29.88;18.92;;;7.20;87.20;;;;;;5114616;27;20023;-77
2021/10/17 01:42:39;;;;;;;31.10;19.52;;;7.20;87.30;;;;;;5114667;27;20032;-76
2021/10/17 01:45:05;;;;;;;30.75;18.50;;;7.10;87.60;;;;;;5114488;27;20023;-77
2021/10/17 01:47:30;;;;;;;30.23;18.65;;;7.00;87.10;;;;;;5114489;28;20102;-76
2021/10/17 01:49:56;;;;;;;30.77;19.17;;;7.00;86.50;;;;;;5114625;27;20051;-77
2021/10/17 01:52:22;;;;;;;26.88;17.77;;;6.90;86.80;;;;;;5114420;28;20023;-75
2021/10/17 01:54:47;;;;;;;28.65;17.48;;;6.90;87.10;;;;;;5114288;27;20099;-75
2021/10/17 01:57:13;;;;;;;26.73;17.20;;;6.90;87.10;;;;;;5114410;28;20027;-76
2021/10/17 01:59:38;;;;;;;28.58;18.13;;;6.90;87.20;;;;;;5114268;27;20019;-76
2021/10/17 02:02:04;;;;;;;27.92;17.48;;;6.80;87.50;;;;;;5114257;27;20471;-76
2021/10/17 02:04:29;;;;;;;30.98;18.77;;;6.80;87.60;;;;;;5114211;27;20365;-76
2021/10/17 02:06:55;;;;;;;27.70;18.38;;;6.70;87.80;;;;;;5112734;28;20095;-76
2021/10/17 02:09:21;;;;;;;32.05;19.65;;;6.70;87.80;;;;;;5113529;27;20241;-76
2021/10/17 02:11:46;;;;;;;31.27;18.25;;;6.70;87.50;;;;;;5112816;28;20048;-75
2021/10/17 02:14:12;;;;;;;32.50;17.67;;;6.70;87.40;;;;;;5113907;27;20020;-76
2021/10/17 02:16:37;;;;;;;30.08;19.20;;;6.70;87.80;;;;;;5116254;28;20054;-76
2021/10/17 02:19:03;;;;;;;26.20;17.30;;;6.70;87.80;;;;;;5117846;28;20062;-76
2021/10/17 02:21:28;;;;;;;30.38;18.15;;;6.60;87.50;;;;;;5119104;27;20031;-76
2021/10/17 02:23:54;;;;;;;30.17;18.05;;;6.70;87.60;;;;;;5117289;27;20030;-76
2021/10/17 02:26:20;;;;;;;29.63;18.60;;;6.60;87.60;;;;;;5112420;28;20484;-76
2021/10/17 02:28:45;;;;;;;27.45;17.33;;;6.50;88.50;;;;;;5123470;28;20044;-75
2021/10/17 02:31:11;;;;;;;30.10;18.33;;;6.50;88.00;;;;;;5134711;27;20055;-76
2021/10/17 02:33:39;;;;;;;31.77;18.30;;;6.40;88.20;;;;;;5115676;27;20028;-76
2021/10/17 02:36:05;;;;;;;26.08;17.45;;;6.30;88.40;;;;;;5114837;28;20032;-76
2021/10/17 02:38:30;;;;;;;30.88;16.92;;;6.30;88.70;;;;;;5113684;28;20024;-76
2021/10/17 02:40:56;;;;;;;28.30;18.25;;;6.30;89.10;;;;;;5113587;27;20023;-76
2021/10/17 02:43:21;;;;;;;29.70;17.70;;;6.30;89.30;;;;;;5113565;27;20023;-76
2021/10/17 02:45:47;;;;;;;28.90;17.25;;;6.30;89.40;;;;;;5113494;27;20031;-76
2021/10/17 02:48:13;;;;;;;29.08;18.27;;;6.30;89.60;;;;;;5113502;28;20027;-76
2021/10/17 02:50:38;;;;;;;29.80;18.08;;;6.30;89.80;;;;;;5113482;28;20432;-76
2021/10/17 02:53:04;;;;;;;31.95;18.30;;;6.30;89.70;;;;;;5113450;28;20091;-75
2021/10/17 02:55:30;;;;;;;29.08;17.30;;;6.40;89.10;;;;;;5113129;28;20028;-76
2021/10/17 02:57:55;;;;;;;27.38;16.85;;;6.40;88.80;;;;;;5113434;27;20544;-75
2021/10/17 03:00:21;;;;;;;28.77;17.95;;;6.30;88.70;;;;;;5113383;28;20015;-75
2021/10/17 03:02:47;;;;;;;26.67;17.10;;;6.30;88.80;;;;;;5111933;28;20383;-76
2021/10/17 03:05:12;;;;;;;28.63;17.05;;;6.30;88.80;;;;;;5113148;28;20031;-76
2021/10/17 03:07:38;;;;;;;26.30;16.92;;;6.30;89.10;;;;;;5113227;28;20068;-76
2021/10/17 03:10:05;;;;;;;27.85;16.85;;;6.30;89.20;;;;;;5113193;27;20027;-76
2021/10/17 03:12:31;;;;;;;25.73;16.38;;;6.40;89.30;;;;;;5113009;27;20384;-76
2021/10/17 03:14:56;;;;;;;26.40;16.48;;;6.40;88.90;;;;;;5113080;28;20019;-77
2021/10/17 03:17:22;;;;;;;25.67;16.38;;;6.40;88.70;;;;;;5113115;27;20494;-76
2021/10/17 03:19:49;;;;;;;25.38;15.48;;;6.50;88.50;;;;;;5112958;27;20049;-76
2021/10/17 03:22:15;;;;;;;23.52;15.20;;;6.40;88.00;;;;;;5112943;27;20022;-77
2021/10/17 03:24:40;;;;;;;27.42;15.15;;;6.40;87.60;;;;;;5112911;28;20023;-76
2021/10/17 03:27:06;;;;;;;26.95;15.95;;;6.40;87.10;;;;;;5112927;28;20032;-76
2021/10/17 03:29:32;;;;;;;25.67;15.90;;;6.40;87.10;;;;;;5112848;27;20063;-76
2021/10/17 03:31:57;;;;;;;31.27;17.00;;;6.30;87.80;;;;;;5112701;27;20062;-76
2021/10/17 03:34:23;;;;;;;29.10;17.38;;;6.30;88.10;;;;;;5112781;27;20059;-75
2021/10/17 03:36:48;;;;;;;26.83;16.95;;;6.20;87.90;;;;;;5112724;28;20032;-76
2021/10/17 03:39:14;;;;;;;28.65;16.30;;;6.20;88.20;;;;;;5112820;27;20084;-76
2021/10/17 03:41:39;;;;;;;25.13;16.27;;;6.20;88.40;;;;;;5112648;27;20030;-75
2021/10/17 03:44:05;;;;;;;21.85;15.52;;;6.20;88.70;;;;;;5112654;27;20081;-75
2021/10/17 03:46:31;;;;;;;25.58;16.30;;;6.20;89.00;;;;;;5112494;28;20122;-76
2021/10/17 03:48:56;;;;;;;27.00;16.23;;;6.20;89.60;;;;;;5112772;28;20027;-76
2021/10/17 03:51:22;;;;;;;27.15;15.15;;;6.20;88.80;;;;;;5111256;28;20040;-77
2021/10/17 03:53:48;;;;;;;25.25;15.52;;;6.20;88.90;;;;;;5112725;27;20081;-77
2021/10/17 03:56:13;;;;;;;26.77;16.88;;;6.20;88.70;;;;;;5112598;27;20024;-75
2021/10/17 03:58:39;;;;;;;24.70;15.45;;;6.20;88.40;;;;;;5112494;27;20171;-75
2021/10/17 04:01:04;;;;;;;23.27;15.27;;;6.20;89.00;;;;;;5112503;28;20467;-77
2021/10/17 04:03:30;;;;;;;22.73;15.02;;;6.10;88.40;;;;;;5112512;28;20023;-77
2021/10/17 04:05:56;;;;;;;25.30;15.23;;;6.10;88.20;;;;;;5112463;27;20032;-77
2021/10/17 04:08:21;;;;;;;23.52;15.38;;;6.10;88.20;;;;;;5112372;27;20012;-77
2021/10/17 04:10:47;;;;;;;24.10;15.18;;;6.20;88.40;;;;;;5111054;28;20119;-77
2021/10/17 04:13:12;;;;;;;27.50;16.75;;;6.20;88.10;;;;;;5112398;27;20047;-77
2021/10/17 04:15:38;;;;;;;26.40;15.95;;;6.20;87.70;;;;;;5112319;27;20107;-77
2021/10/17 04:18:04;;;;;;;23.73;15.70;;;6.10;88.10;;;;;;5112515;28;20020;-77
2021/10/17 04:20:31;;;;;;;23.08;15.02;;;6.00;88.20;;;;;;5112336;28;20024;-77
2021/10/17 04:22:57;;;;;;;25.15;15.95;;;5.90;88.40;;;;;;5112226;28;20027;-77
2021/10/17 04:25:23;;;;;;;25.70;15.90;;;6.00;88.30;;;;;;5112240;28;20088;-75
2021/10/17 04:27:48;;;;;;;27.75;16.80;;;5.90;88.50;;;;;;5112213;27;20486;-75
2021/10/17 04:30:15;;;;;;;26.55;15.80;;;5.90;88.30;;;;;;5112049;27;20063;-77
2021/10/17 04:32:40;;;;;;;29.63;16.85;;;5.90;88.50;;;;;;5112865;27;20050;-77
2021/10/17 04:35:08;;;;;;;27.08;16.85;;;5.80;89.60;;;;;;5114704;28;20507;-77
2021/10/17 04:37:35;;;;;;;25.88;15.88;;;5.90;89.60;;;;;;5115761;28;20085;-77
2021/10/17 04:40:02;;;;;;;26.95;17.63;;;5.80;89.40;;;;;;5115829;27;20027;-77
2021/10/17 04:42:28;;;;;;;24.17;15.68;;;5.80;89.30;;;;;;5115853;27;20472;-77
2021/10/17 04:44:54;;;;;;;25.75;15.60;;;5.70;89.40;;;;;;5115666;27;20045;-77
2021/10/17 04:47:20;;;;;;;25.92;15.85;;;5.80;89.90;;;;;;5114323;28;20031;-77
2021/10/17 04:49:45;;;;;;;24.85;16.13;;;5.80;89.80;;;;;;5115878;27;20036;-76
2021/10/17 04:52:11;;;;;;;28.98;16.05;;;5.80;89.50;;;;;;5115763;28;20107;-76
2021/10/17 04:54:36;;;;;;;25.70;15.73;;;5.80;89.20;;;;;;5115072;27;20106;-76
2021/10/17 04:57:02;;;;;;;28.00;17.15;;;5.80;89.70;;;;;;5115731;27;20472;-76
2021/10/17 04:59:27;;;;;;;25.67;16.33;;;5.90;90.40;;;;;;5115577;28;20045;-76
2021/10/17 05:01:53;;;;;;;27.60;16.77;;;5.90;90.80;;;;;;5115499;28;20147;-76
2021/10/17 05:04:19;;;;;;;25.77;16.00;;;5.90;89.60;;;;;;5115345;27;20032;-76
2021/10/17 05:06:45;;;;;;;24.48;14.85;;;5.80;89.20;;;;;;5115256;27;20046;-76
2021/10/17 05:09:11;;;;;;;27.80;16.83;;;5.80;89.30;;;;;;5115339;27;20019;-76
2021/10/17 05:11:36;;;;;;;27.13;17.05;;;5.70;89.60;;;;;;5115090;27;20028;-77
2021/10/17 05:14:02;;;;;;;29.38;17.02;;;5.70;89.80;;;;;;5115192;27;20051;-76
2021/10/17 05:16:27;;;;;;;25.15;15.25;;;5.70;89.90;;;;;;5115148;27;20023;-76
2021/10/17 05:18:53;;;;;;;27.98;17.17;;;5.70;89.80;;;;;;5115177;27;20076;-77
2021/10/17 05:21:18;;;;;;;27.85;16.52;;;5.70;89.90;;;;;;5113745;28;20049;-76
2021/10/17 05:23:44;;;;;;;28.17;17.17;;;5.70;90.00;;;;;;5115081;28;20024;-76
2021/10/17 05:26:10;;;;;;;25.55;15.73;;;5.70;89.70;;;;;;5114957;28;20082;-77
2021/10/17 05:28:35;;;;;;;30.90;17.38;;;5.70;89.60;;;;;;5115069;27;20019;-77
2021/10/17 05:31:03;;;;;;;27.15;16.73;;;5.70;89.60;;;;;;5114760;27;20079;-77
2021/10/17 05:33:29;;;;;;;26.83;16.40;;;5.70;89.50;;;;;;5114920;28;20035;-76
2021/10/17 05:35:55;;;;;;;24.75;16.23;;;5.60;89.40;;;;;;5114849;27;20039;-76
2021/10/17 05:38:21;;;;;;;26.63;16.33;;;5.60;89.30;;;;;;5114899;27;20023;-77
2021/10/17 05:40:46;;;;;;;28.00;17.10;;;5.70;88.60;;;;;;5114751;27;20056;-77
2021/10/17 05:43:12;;;;;;;25.73;15.63;;;5.60;88.40;;;;;;5114473;28;20440;-76
2021/10/17 05:45:37;;;;;;;23.52;15.65;;;5.60;88.50;;;;;;5112082;28;20035;-76
2021/10/17 05:48:03;;;;;;;28.25;17.15;;;5.60;88.50;;;;;;5114627;27;20024;-77
2021/10/17 05:50:29;;;;;;;27.45;16.63;;;5.60;88.20;;;;;;5114306;27;20539;-77
2021/10/17 05:52:54;;;;;;;24.35;15.23;;;5.60;88.20;;;;;;5114358;27;20449;-77
2021/10/17 05:55:20;;;;;;;27.92;16.60;;;5.60;88.20;;;;;;5114250;28;20110;-77
2021/10/17 05:57:46;;;;;;;28.23;16.02;;;5.60;88.00;;;;;;5114291;27;20102;-77
2021/10/17 06:00:11;;;;;;;27.70;17.08;;;5.60;88.10;;;;;;5114171;28;20051;-76
2021/10/17 06:02:37;;;;;;;24.45;15.60;;;5.60;88.20;;;;;;5113979;27;20024;-77
2021/10/17 06:05:03;;;;;;;27.58;16.33;;;5.60;88.40;;;;;;5114030;27;20045;-77
2021/10/17 06:07:29;;;;;;;25.33;15.98;;;5.60;88.40;;;;;;5114029;27;20028;-77
2021/10/17 06:09:54;;;;;;;24.10;14.73;;;5.60;88.20;;;;;;5113984;27;20464;-77
2021/10/17 06:12:20;;;;;;;25.23;15.50;;;5.70;88.20;;;;;;5113847;28;20361;-77
2021/10/17 06:14:46;;;;;;;22.83;15.95;;;5.70;88.00;;;;;;5113942;28;20024;-77
2021/10/17 06:17:11;;;;;;;26.17;17.02;;;5.70;87.80;;;;;;5113875;27;20551;-76
2021/10/17 06:19:37;;;;;;;28.35;15.48;;;5.80;87.80;;;;;;5113805;28;20034;-76
2021/10/17 06:22:03;;;;;;;24.15;15.40;;;5.80;87.50;;;;;;5113697;27;20159;-76
2021/10/17 06:24:32;;;;;;;34.00;16.85;;;5.90;87.30;;;;;;5113540;27;20376;-77
2021/10/17 06:26:58;;;;;;;24.08;15.02;;;5.90;87.10;;;;;;5113714;27;20031;-78
2021/10/17 06:29:24;;;;;;;23.38;15.50;;;5.90;87.40;;;;;;5113590;27;20490;-77
2021/10/17 06:31:50;;;;;;;26.15;15.43;;;5.90;87.40;;;;;;5113384;27;20074;-77
2021/10/17 06:34:15;;;;;;;26.40;15.63;;;5.90;87.50;;;;;;5113501;28;20031;-77
2021/10/17 06:36:41;;;;;;;29.13;16.58;;;5.90;87.60;;;;;;5113485;28;20035;-77
2021/10/17 06:39:07;;;;;;;23.83;15.63;;;5.80;87.40;;;;;;5113526;28;20483;-77
2021/10/17 06:41:32;;;;;;;26.52;15.93;;;5.80;87.50;;;;;;5113405;27;20091;-77
2021/10/17 06:43:58;;;;;;;26.10;17.23;;;5.90;88.00;;;;;;5113304;27;20035;-77
2021/10/17 06:46:24;;;;;;;24.88;15.90;;;5.90;88.40;;;;;;5113214;27;20403;-77
2021/10/17 06:48:49;;;;;;;28.73;17.33;;;5.90;88.20;;;;;;5113336;27;20024;-77
2021/10/17 06:51:15;;;;;;;27.77;16.75;;;6.00;88.20;;;;;;5113193;28;20031;-76
2021/10/17 06:53:40;;;;;;;27.70;15.75;;;6.00;87.50;;;;;;5113230;27;20015;-77
2021/10/17 06:56:07;;;;;;;24.30;16.08;;;6.00;87.70;;;;;;5110134;28;20028;-76
2021/10/17 06:58:33;;;;;;;28.38;16.42;;;6.10;87.60;;;;;;5112439;28;20096;-77
2021/10/17 07:00:58;;;;;;;27.77;17.38;;;6.20;87.60;;;;;;5111912;27;20487;-77
2021/10/17 07:03:24;;;;;;;27.10;17.15;;;6.30;87.70;;;;;;5112955;28;20019;-77
2021/10/17 07:05:50;;;;;;;27.02;16.65;;;6.30;87.00;;;;;;5112967;28;20427;-77
2021/10/17 07:08:15;;;;;;;24.30;15.65;;;6.40;87.10;;;;;;5112886;28;20057;-77
2021/10/17 07:10:41;;;;;;;24.35;15.27;;;6.50;86.80;;;;;;5112799;28;20070;-77
2021/10/17 07:13:06;;;;;;;20.55;12.82;;;6.60;86.50;;;;;;5112804;28;20356;-76
2021/10/17 07:15:32;;;;;;;19.58;13.45;;;6.60;85.20;;;;;;5112753;28;20028;-76
2021/10/17 07:17:58;;;;;;;19.08;12.80;;;6.60;85.00;;;;;;5112933;28;20028;-77
2021/10/17 07:20:23;;;;;;;20.50;13.50;;;6.50;85.00;;;;;;5112718;28;20030;-76
2021/10/17 07:22:49;;;;;;;18.45;11.65;;;6.50;84.80;;;;;;5112721;28;20080;-76
2021/10/17 07:25:16;;;;;;;17.88;12.13;;;6.60;84.60;;;;;;5112665;28;20028;-76
2021/10/17 07:27:42;;;;;;;55.10;33.70;;;6.60;84.00;;;;;;5112598;28;20039;-76
2021/10/17 07:30:08;;;;;;;23.33;13.07;;;6.70;84.50;;;;;;5111395;28;20114;-75
2021/10/17 07:32:33;;;;;;;16.23;10.20;;;6.80;84.10;;;;;;5112462;28;20082;-75
2021/10/17 07:34:59;;;;;;;19.67;12.18;;;6.90;84.10;;;;;;5112461;28;20070;-76
2021/10/17 07:37:25;;;;;;;16.35;11.85;;;6.90;84.10;;;;;;5112732;28;20058;-76
2021/10/17 07:39:50;;;;;;;19.00;12.38;;;7.00;84.20;;;;;;5112755;28;20047;-77
2021/10/17 07:42:16;;;;;;;20.30;13.23;;;7.20;84.20;;;;;;5111190;28;20453;-75
2021/10/17 07:44:41;;;;;;;20.30;13.18;;;7.40;84.30;;;;;;5112743;28;20428;-75
2021/10/17 07:47:07;;;;;;;16.60;11.43;;;7.60;84.30;;;;;;5112628;28;20032;-77
2021/10/17 07:49:33;;;;;;;22.83;12.77;;;7.80;84.00;;;;;;5112416;28;20024;-75
2021/10/17 07:51:58;;;;;;;20.23;11.50;;;8.10;83.30;;;;;;5112771;28;20030;-75
2021/10/17 07:54:24;;;;;;;19.05;10.68;;;8.30;84.00;;;;;;5112448;28;20023;-78
2021/10/17 07:56:49;;;;;;;22.52;13.82;;;8.90;91.30;;;;;;5111127;28;20020;-78
2021/10/17 07:59:15;;;;;;;19.00;12.10;;;9.40;86.40;;;;;;5112445;28;20019;-77
2021/10/17 08:01:41;;;;;;;20.23;12.40;;;9.70;82.70;;;;;;5112494;28;20020;-78
2021/10/17 08:04:07;;;;;;;21.30;11.27;;;10.20;80.10;;;;;;5112506;28;20019;-78
2021/10/17 08:06:32;;;;;;;21.38;12.65;;;10.50;78.10;;;;;;5110976;28;20047;-77
2021/10/17 08:08:58;;;;;;;26.85;13.77;;;10.90;75.60;;;;;;5115125;28;20027;-79
2021/10/17 08:11:23;;;;;;;21.73;13.45;;;11.00;73.50;;;;;;5116686;28;20051;-80
2021/10/17 08:13:49;;;;;;;21.55;13.40;;;11.20;73.40;;;;;;5116507;28;20038;-79
2021/10/17 08:16:15;;;;;;;24.45;14.63;;;11.50;72.70;;;;;;5118670;28;20032;-79
2021/10/17 08:18:40;;;;;;;24.48;14.90;;;11.60;71.90;;;;;;5119536;28;20062;-78
2021/10/17 08:21:06;;;;;;;23.27;14.38;;;11.80;71.80;;;;;;5122795;28;20032;-79
2021/10/17 08:23:32;;;;;;;18.20;12.35;;;12.00;70.70;;;;;;5121299;28;20024;-80
2021/10/17 08:25:57;;;;;;;19.25;12.80;;;12.20;70.90;;;;;;5117500;28;20062;-79
2021/10/17 08:28:23;;;;;;;17.73;11.27;;;12.40;69.70;;;;;;5116679;28;20388;-80
2021/10/17 08:30:50;;;;;;;18.98;11.68;;;12.60;68.70;;;;;;5118719;28;20111;-79
2021/10/17 08:33:17;;;;;;;18.98;12.00;;;12.70;68.00;;;;;;5116376;28;20020;-79
2021/10/17 08:35:43;;;;;;;16.85;11.95;;;12.80;67.70;;;;;;5116437;28;20490;-80
2021/10/17 08:38:08;;;;;;;19.92;12.88;;;12.90;67.40;;;;;;5116215;28;20103;-79
2021/10/17 08:40:34;;;;;;;17.40;11.50;;;13.00;67.10;;;;;;5116215;28;20519;-79
2021/10/17 08:43:00;;;;;;;18.23;12.90;;;13.10;66.80;;;;;;5116042;28;20380;-79
2021/10/17 08:45:26;;;;;;;14.63;10.77;;;13.20;65.80;;;;;;5115721;28;20042;-80
2021/10/17 08:47:52;;;;;;;17.60;12.15;;;13.40;65.60;;;;;;5116127;28;20422;-77
2021/10/17 08:50:19;;;;;;;16.27;11.63;;;13.40;64.70;;;;;;5115834;28;20402;-76
2021/10/17 08:52:45;;;;;;;16.33;11.57;;;13.40;64.30;;;;;;5115837;28;20098;-77
2021/10/17 08:55:12;;;;;;;16.58;11.25;;;13.40;64.80;;;;;;5115627;28;20030;-77
2021/10/17 08:57:38;;;;;;;16.13;11.90;;;13.50;64.90;;;;;;5115870;28;20099;-77
2021/10/17 09:00:27;;;;;;;20.15;12.65;;;13.50;64.50;;;;;;5115646;28;20020;-78
2021/10/17 09:02:53;;;;;;;14.00;10.32;;;13.60;64.20;;;;;;5115652;28;20026;-77
2021/10/17 09:05:31;;;;;;;20.80;13.30;;;13.70;63.80;;;;;;5115334;28;20027;-77
2021/10/17 09:07:56;;;;;;;22.52;13.98;;;13.60;63.60;;;;;;5115588;28;20054;-76
2021/10/17 09:10:22;;;;;;;16.40;12.27;;;13.40;64.20;;;;;;5115415;28;20019;-76
2021/10/17 09:12:48;;;;;;;15.80;11.32;;;13.50;64.50;;;;;;5115357;28;20372;-77
2021/10/17 09:15:29;;;;;;;20.05;13.95;;;13.70;64.40;;;;;;5115427;28;20425;-77
2021/10/17 09:18:12;;;;;;;18.38;12.65;;;13.60;64.40;;;;;;5114009;28;20020;-79
2021/10/17 09:20:47;;;;;;;17.40;13.35;;;13.70;65.50;;;;;;5114742;28;20429;-75
2021/10/17 09:23:30;;;;;;;19.75;15.07;;;13.80;65.30;;;;;;5115010;28;20112;-77
2021/10/17 09:26:05;;;;;;;21.35;14.70;;;13.70;65.10;;;;;;5114945;28;20043;-78
2021/10/17 09:28:31;;;;;;;18.80;13.60;;;13.60;66.90;;;;;;5115270;28;20023;-77
2021/10/17 09:31:06;;;;;;;20.10;14.15;;;13.80;66.40;;;;;;5113605;28;20089;-77
2021/10/17 09:33:33;;;;;;;21.58;14.75;;;13.70;67.10;;;;;;5113511;28;20063;-78
2021/10/17 09:35:59;;;;;;;19.38;13.60;;;13.60;67.20;;;;;;5114530;28;20032;-78
2021/10/17 09:38:42;;;;;;;19.63;14.52;;;13.90;66.20;;;;;;5114842;28;20310;-77
2021/10/17 09:41:23;;;;;;;24.58;14.95;;;14.00;66.30;;;;;;5114265;28;20102;-77
2021/10/17 09:43:54;;;;;;;19.70;14.73;;;13.70;67.30;;;;;;5113454;28;20016;-77
2021/10/17 09:46:20;;;;;;;21.20;14.23;;;13.80;68.30;;;;;;5114740;28;20035;-77
2021/10/17 09:48:46;;;;;;;24.45;15.57;;;14.10;67.90;;;;;;5114767;28;20020;-77
2021/10/17 09:51:24;;;;;;;26.05;16.92;;;14.30;67.30;;;;;;5115204;28;20020;-78
2021/10/17 09:53:59;;;;;;;28.58;19.98;;;14.50;66.80;;;;;;5127081;28;20043;-77
2021/10/17 09:56:40;;;;;;;31.52;20.92;;;14.70;66.40;;;;;;5137734;28;20007;-77
2021/10/17 09:59:11;;;;;;;27.63;19.05;;;14.60;66.20;;;;;;5115777;28;20101;-78
2021/10/17 10:01:39;;;;;;;28.73;19.40;;;14.60;66.70;;;;;;5114942;28;20062;-79
2021/10/17 10:04:11;;;;;;;25.83;17.80;;;14.60;65.90;;;;;;5114471;28;20055;-77
2021/10/17 10:06:37;;;;;;;31.38;18.08;;;14.70;66.50;;;;;;5113970;28;20046;-78
2021/10/17 10:09:08;;;;;;;25.42;18.08;;;14.80;65.50;;;;;;5114129;28;20012;-78
2021/10/17 10:11:34;;;;;;;25.10;18.80;;;15.00;64.80;;;;;;5113850;28;20019;-77
2021/10/17 10:14:03;;;;;;;26.17;18.13;;;14.90;64.30;;;;;;5112571;28;20440;-78
2021/10/17 10:16:30;;;;;;;23.30;16.80;;;15.00;64.70;;;;;;5114040;28;20024;-77
2021/10/17 10:19:04;;;;;;;25.75;17.17;;;15.20;63.70;;;;;;5113739;28;20038;-77
2021/10/17 10:21:31;;;;;;;25.20;18.10;;;15.60;62.10;;;;;;5113890;28;20020;-78
2021/10/17 10:24:00;;;;;;;26.67;18.85;;;16.10;61.10;;;;;;5113736;28;20478;-78
2021/10/17 10:26:28;;;;;;;25.17;17.52;;;16.50;59.90;;;;;;5113580;28;20046;-78
2021/10/17 10:28:55;;;;;;;22.40;16.67;;;16.40;59.80;;;;;;5113780;28;20016;-78
2021/10/17 10:31:41;;;;;;;21.67;14.85;;;16.90;59.30;;;;;;5112871;28;20040;-78
2021/10/17 10:34:07;;;;;;;22.58;17.58;;;17.40;57.60;;;;;;5109625;27;20035;-77
2021/10/17 10:36:44;;;;;;;24.63;16.02;;;17.60;54.70;;;;;;5113533;28;20028;-78
2021/10/17 10:39:18;;;;;;;24.90;16.27;;;17.60;54.00;;;;;;5112053;28;20016;-77
2021/10/17 10:41:49;;;;;;;25.13;17.35;;;17.80;54.10;;;;;;5113001;28;20030;-76
2021/10/17 10:44:18;;;;;;;24.15;17.35;;;17.60;54.30;;;;;;5113543;28;20023;-78
2021/10/17 10:46:44;;;;;;;26.73;16.63;;;17.20;55.70;;;;;;5113419;28;20071;-77
2021/10/17 10:49:10;;;;;;;23.30;16.80;;;17.40;54.80;;;;;;5113425;28;20020;-78
2021/10/17 10:51:41;;;;;;;25.75;16.30;;;17.10;55.20;;;;;;5112072;28;20490;-77
2021/10/17 10:54:26;;;;;;;21.02;15.18;;;17.10;56.40;;;;;;5112103;28;20408;-78
2021/10/17 10:56:56;;;;;;;19.52;15.05;;;17.50;55.10;;;;;;5113508;28;20031;-77
2021/10/17 10:59:29;;;;;;;20.30;14.25;;;17.70;54.40;;;;;;5113311;28;20020;-79
2021/10/17 11:02:19;;;;;;;19.30;14.77;;;18.10;52.40;;;;;;5113317;28;20045;-78
2021/10/17 11:04:44;;;;;;;16.98;13.15;;;18.20;52.20;;;;;;5113298;28;20039;-78
2021/10/17 11:07:28;;;;;;;19.73;13.93;;;18.60;50.70;;;;;;5113306;28;20032;-78
2021/10/17 11:09:56;;;;;;;22.40;15.80;;;18.90;50.10;;;;;;5113305;28;20042;-78
2021/10/17 11:12:40;;;;;;;18.55;13.60;;;18.60;49.80;;;;;;5111672;28;20027;-78
2021/10/17 11:15:07;;;;;;;16.73;12.93;;;18.90;49.40;;;;;;5113161;28;20032;-78
2021/10/17 11:17:33;;;;;;;20.63;14.50;;;19.00;49.00;;;;;;5111494;28;20020;-78
2021/10/17 11:19:59;;;;;;;15.38;11.23;;;19.30;47.90;;;;;;5113085;28;20024;-78
2021/10/17 11:22:24;;;;;;;17.10;12.35;;;19.60;46.60;;;;;;5112986;28;20046;-78
2021/10/17 11:24:51;;;;;;;15.27;11.85;;;19.60;44.30;;;;;;5112895;28;20376;-79
2021/10/17 11:27:17;;;;;;;15.00;10.82;;;19.50;44.10;;;;;;5112773;28;20467;-78
2021/10/17 11:29:44;;;;;;;13.65;9.68;;;19.60;44.30;;;;;;5112899;28;20022;-77
2021/10/17 11:32:16;;;;;;;13.15;10.07;;;19.90;42.60;;;;;;5112704;28;20047;-77
2021/10/17 11:35:02;;;;;;;14.38;9.10;;;20.10;40.70;;;;;;5112763;28;20150;-78
2021/10/17 11:37:30;;;;;;;16.08;9.88;;;20.20;40.30;;;;;;5112320;28;20376;-78
2021/10/17 11:39:56;;;;;;;15.85;9.52;;;20.20;40.00;;;;;;5112794;27;20575;-78
2021/10/17 11:42:23;;;;;;;12.63;8.75;;;20.20;39.90;;;;;;5111752;28;20480;-78
2021/10/17 11:44:50;;;;;;;11.23;8.32;;;20.40;39.70;;;;;;5116356;28;20073;-78
2021/10/17 11:47:17;;;;;;;11.43;7.72;;;20.60;39.20;;;;;;5116270;28;20042;-79
2021/10/17 11:49:43;;;;;;;10.95;8.75;;;20.80;38.20;;;;;;5116469;28;20471;-78
2021/10/17 11:52:11;;;;;;;11.45;8.48;;;20.50;38.30;;;;;;5116737;28;20067;-79
2021/10/17 11:54:48;;;;;;;10.40;7.45;;;20.60;39.00;;;;;;5116647;28;20077;-79
2021/10/17 11:57:33;;;;;;;8.30;6.68;;;20.90;38.60;;;;;;5116757;28;20030;-79
2021/10/17 12:00:00;;;;;;;8.25;6.70;;;21.20;37.90;;;;;;5116935;28;20092;-80
2021/10/17 12:02:34;;;;;;;11.00;8.27;;;21.50;36.80;;;;;;5116633;28;20108;-81
2021/10/17 12:05:00;;;;;;;8.85;7.30;;;21.60;36.80;;;;;;5116565;28;20050;-80
2021/10/17 12:07:27;;;;;;;10.60;6.93;;;21.30;36.60;;;;;;5115254;28;20085;-80
2021/10/17 12:09:54;;;;;;;7.85;6.43;;;21.60;36.30;;;;;;5116581;28;20030;-79
2021/10/17 12:12:24;;;;;;;8.32;6.15;;;21.80;35.20;;;;;;5116222;28;20027;-79
2021/10/17 12:15:13;;;;;;;8.75;6.70;;;21.90;34.60;;;;;;5116612;28;20029;-79
2021/10/17 12:17:40;;;;;;;8.10;5.75;;;22.00;33.90;;;;;;5116420;28;20097;-79
2021/10/17 12:20:11;;;;;;;8.70;5.82;;;22.20;34.50;;;;;;5115080;28;20051;-79
2021/10/17 12:22:41;;;;;;;8.35;5.82;;;22.40;34.20;;;;;;5116029;28;20051;-78
2021/10/17 12:25:08;;;;;;;6.43;4.95;;;22.60;32.80;;;;;;5116106;28;20484;-80
2021/10/17 12:27:35;;;;;;;5.97;4.85;;;22.80;32.20;;;;;;5116240;28;20487;-78
2021/10/17 12:30:07;;;;;;;6.97;4.60;;;22.80;31.50;;;;;;5115900;28;20030;-76
2021/10/17 12:32:45;;;;;;;5.68;4.68;;;22.80;30.90;;;;;;5115786;28;20052;-79
2021/10/17 12:35:16;;;;;;;5.57;4.15;;;22.80;30.60;;;;;;5116416;28;20150;-80
2021/10/17 12:37:41;;;;;;;5.25;4.28;;;22.70;31.20;;;;;;5114688;28;20028;-79